KGUP/GUP METAR and TAF weather

Enter ICAO airport designator
Station Type Date Time Source
KGUP METAR 2022/01/29 11:53 UTC NOAA

KGUP 291153Z AUTO 07003KT 10SM CLR M11/M14 A3039 RMK AO2 SLP334 T11111139 11061 21122 58012


Station Type Date Time Source
KGUP Decoded METAR 2022/01/29 11:53 UTC NOAA

GALLUP MUNICIPAL AIRPORT, NM, United States (KGUP) 35-31N 108-47W 1971M
Jan 29, 2022 - 06:53 AM EST / 2022.01.29 1153 UTC
Wind: from the ENE (070 degrees) at 3 MPH (3 KT):0
Visibility: 10 mile(s):0
Sky conditions: clear
Temperature: 12.0 F (-11.1 C)
Dew Point: 7.0 F (-13.9 C)
Relative Humidity: 79%
Pressure (altimeter): 30.39 in. Hg (1029 hPa)
Pressure tendency: 0.04 inches (1.2 hPa) lower than three hours ago
ob: KGUP 291153Z AUTO 07003KT 10SM CLR M11/M14 A3039 RMK AO2 SLP334 T11111139 11061 21122 58012
cycle: 12

Station Type Date Time Source
KGUP TAF 2022/01/29 12:27 UTC NOAA

TAF KGUP 291125Z 2912/3012 VRB06KT P6SM SKC
FM291900 04006KT P6SM FEW250
FM300100 VRB06KT P6SM SCT250

Example: see airport list